Time;durP1;ratioP1;P1;durP2;ratioP2;P2;SDS_P1;SDS_P2;PMS_P1;PMS_P2;Temp;Humidity;BMP_temperature;BMP_pressure;BME280_temperature;BME280_humidity;BME280_pressure;Samples;Min_cycle;Max_cycle;Signal;HPM_P1;HPM_P2
2022/09/12 00:01:20;;;;;;;;;;;18.30;87.40;;;;;;6341719;22;19938;-96
2022/09/12 00:03:45;;;;;;;;;;;18.30;87.30;;;;;;6341390;22;19943;-96
2022/09/12 00:06:13;;;;;;;;;;;18.30;87.20;;;;;;6313416;22;19945;-96
2022/09/12 00:08:39;;;;;;;;;;;18.30;87.00;;;;;;6341264;22;19969;-96
2022/09/12 00:11:06;;;;;;;;;;;18.40;87.00;;;;;;6341129;22;19933;-95
2022/09/12 00:13:32;;;;;;;;;;;18.50;86.60;;;;;;6340645;22;19939;-96
2022/09/12 00:15:57;;;;;;;;;;;18.50;86.00;;;;;;6340642;22;19951;-96
2022/09/12 00:18:23;;;;;;;;;;;18.40;86.10;;;;;;6341521;22;19935;-95
2022/09/12 00:20:49;;;;;;;;;;;18.40;85.90;;;;;;6341411;22;19946;-95
2022/09/12 00:23:14;;;;;;;;;;;18.40;85.70;;;;;;6341671;22;19940;-96
2022/09/12 00:25:41;;;;;;;;;;;18.40;85.90;;;;;;6313965;22;19938;-95
2022/09/12 00:28:06;;;;;;;;;;;18.40;86.10;;;;;;6341619;22;19977;-96
2022/09/12 00:30:32;;;;;;;;;;;18.40;86.10;;;;;;6341462;22;19933;-96
2022/09/12 00:32:58;;;;;;;;;;;18.30;86.10;;;;;;6341632;22;19943;-96
2022/09/12 00:35:24;;;;;;;;;;;18.20;86.40;;;;;;6340655;22;19951;-96
2022/09/12 00:37:49;;;;;;;;;;;18.20;86.30;;;;;;6341166;22;19937;-95
2022/09/12 00:40:15;;;;;;;;;;;18.00;86.90;;;;;;6340776;22;19966;-95
2022/09/12 00:42:40;;;;;;;;;;;17.90;86.60;;;;;;6313283;22;19934;-96
2022/09/12 00:45:13;;;;;;;;;;;17.80;87.10;;;;;;6341932;22;20015;-96
2022/09/12 00:47:40;;;;;;;;;;;17.80;87.60;;;;;;6340857;22;20348;-95
2022/09/12 00:50:08;;;;;;;;;;;17.90;87.70;;;;;;6341231;22;19937;-96
2022/09/12 00:52:54;;;;;;;;;;;17.90;87.80;;;;;;6313102;22;19934;-96
2022/09/12 00:55:22;;;;;;;;;;;17.90;87.80;;;;;;6339019;22;19958;-96
2022/09/12 00:57:53;;;;;;;;;;;17.80;87.50;;;;;;6312558;22;20000;-96
2022/09/12 01:00:20;;;;;;;;;;;17.80;87.80;;;;;;6312716;22;19938;-95
2022/09/12 01:02:49;;;;;;;;;;;17.80;87.70;;;;;;6340928;22;20012;-95
2022/09/12 01:05:15;;;;;;;;;;;17.80;87.30;;;;;;6340745;22;19930;-96
2022/09/12 01:07:41;;;;;;;;;;;17.90;87.50;;;;;;6341153;22;19940;-96
2022/09/12 01:10:08;;;;;;;;;;;17.90;87.50;;;;;;6340217;22;19930;-96
2022/09/12 01:12:36;;;;;;;;;;;17.80;87.60;;;;;;6340185;22;19960;-95
2022/09/12 01:15:02;;;;;;;;;;;17.80;87.80;;;;;;6339660;22;20025;-95
2022/09/12 01:17:32;;;;;;;;;;;17.60;88.20;;;;;;6340146;22;20246;-95
2022/09/12 01:20:01;;;;;;;;;;;17.50;88.70;;;;;;6340265;22;19942;-96
2022/09/12 01:22:35;;;;;;;;;;;17.60;88.70;;;;;;6312159;22;19936;-95
2022/09/12 01:25:13;;;;;;;;;;;17.60;88.40;;;;;;6312330;22;19934;-96
2022/09/12 01:27:57;;;;;;;;;;;17.50;87.80;;;;;;6340669;22;20390;-96
2022/09/12 01:30:43;;;;;;;;;;;17.30;88.10;;;;;;6339888;22;19928;-96
2022/09/12 01:33:08;;;;;;;;;;;17.30;88.80;;;;;;6340359;22;20008;-95
2022/09/12 01:35:34;;;;;;;;;;;17.20;89.60;;;;;;6312125;22;20003;-95
2022/09/12 01:38:02;;;;;;;;;;;17.20;90.10;;;;;;6339952;22;19938;-95
2022/09/12 01:40:47;;;;;;;;;;;17.30;90.10;;;;;;6339107;22;19984;-96
2022/09/12 01:43:20;;;;;;;;;;;17.30;90.40;;;;;;6340160;22;20002;-95
2022/09/12 01:45:59;;;;;;;;;;;17.30;90.30;;;;;;6339763;22;19933;-95
2022/09/12 01:48:43;;;;;;;;;;;17.30;90.20;;;;;;6340235;22;19964;-96
2022/09/12 01:51:12;;;;;;;;;;;17.30;90.10;;;;;;6339824;22;19933;-96
2022/09/12 01:53:43;;;;;;;;;;;17.40;89.70;;;;;;6340189;22;19976;-95
2022/09/12 01:56:12;;;;;;;;;;;17.40;89.10;;;;;;6339564;22;19952;-96
2022/09/12 01:58:43;;;;;;;;;;;17.40;88.90;;;;;;6340091;22;20008;-95
2022/09/12 02:01:12;;;;;;;;;;;17.50;88.20;;;;;;6340221;22;19939;-96
2022/09/12 02:03:45;;;;;;;;;;;17.60;87.90;;;;;;6340618;22;19933;-95
2022/09/12 02:06:31;;;;;;;;;;;17.60;87.80;;;;;;6341838;22;19961;-96
2022/09/12 02:09:00;;;;;;;;;;;17.50;87.60;;;;;;6342141;22;19932;-95
2022/09/12 02:11:27;;;;;;;;;;;17.40;87.70;;;;;;6314057;22;19946;-96
2022/09/12 02:13:59;;;;;;;;;;;17.40;88.00;;;;;;6341467;22;19931;-96
2022/09/12 02:16:30;;;;;;;;;;;17.30;87.90;;;;;;6341994;22;19933;-96
2022/09/12 02:19:07;;;;;;;;;;;17.30;87.80;;;;;;6341465;22;19930;-95
2022/09/12 02:21:35;;;;;;;;;;;17.30;87.90;;;;;;6341776;22;19979;-95
2022/09/12 02:24:01;;;;;;;;;;;17.30;87.90;;;;;;6313917;22;20020;-95
2022/09/12 02:26:34;;;;;;;;;;;17.30;87.20;;;;;;6314785;22;20019;-96
2022/09/12 02:28:59;;;;;;;;;;;17.40;87.00;;;;;;6341308;22;19934;-96
2022/09/12 02:31:45;;;;;;;;;;;17.50;87.30;;;;;;6313747;22;20383;-96
2022/09/12 02:34:16;;;;;;;;;;;17.50;87.10;;;;;;6341871;22;19930;-96
2022/09/12 02:36:42;;;;;;;;;;;17.50;87.20;;;;;;6313656;22;20447;-95
2022/09/12 02:39:08;;;;;;;;;;;17.30;87.00;;;;;;6313608;22;19952;-95
2022/09/12 02:41:34;;;;;;;;;;;17.30;87.40;;;;;;6341136;22;19972;-95
2022/09/12 02:44:00;;;;;;;;;;;17.30;87.10;;;;;;6313522;22;19991;-96
2022/09/12 02:46:27;;;;;;;;;;;17.30;87.30;;;;;;6341588;22;19964;-95
2022/09/12 02:48:54;;;;;;;;;;;17.30;87.30;;;;;;6341452;22;19936;-96
2022/09/12 02:51:20;;;;;;;;;;;17.10;87.20;;;;;;6341440;22;19943;-96
2022/09/12 02:53:45;;;;;;;;;;;16.90;87.40;;;;;;6341362;22;20330;-95
2022/09/12 02:56:16;;;;;;;;;;;16.80;88.20;;;;;;6346838;22;19952;-96
2022/09/12 02:58:42;;;;;;;;;;;16.80;88.40;;;;;;6342964;22;19937;-95
2022/09/12 03:01:07;;;;;;;;;;;16.80;88.60;;;;;;6339690;22;20005;-96
2022/09/12 03:03:36;;;;;;;;;;;16.80;88.70;;;;;;6339901;22;19937;-96
2022/09/12 03:06:07;;;;;;;;;;;16.70;88.90;;;;;;6339834;22;19936;-96
2022/09/12 03:08:38;;;;;;;;;;;16.70;89.30;;;;;;6339677;22;19935;-96
2022/09/12 03:11:03;;;;;;;;;;;16.80;89.60;;;;;;6340479;22;20008;-95
2022/09/12 03:13:32;;;;;;;;;;;17.00;89.20;;;;;;6341262;22;20234;-96
2022/09/12 03:16:04;;;;;;;;;;;17.00;89.00;;;;;;6340281;22;20009;-96
2022/09/12 03:18:35;;;;;;;;;;;17.10;88.80;;;;;;6341559;22;19930;-95
2022/09/12 03:21:07;;;;;;;;;;;17.10;88.60;;;;;;6314313;22;20311;-96
2022/09/12 03:23:51;;;;;;;;;;;17.10;88.50;;;;;;6341199;22;19940;-96
2022/09/12 03:26:45;;;;;;;;;;;17.10;88.50;;;;;;6340724;22;19939;-95
2022/09/12 03:29:12;;;;;;;;;;;17.10;88.60;;;;;;6280130;22;20351;-96
2022/09/12 03:31:47;;;;;;;;;;;17.10;88.20;;;;;;6341464;22;20353;-96
2022/09/12 03:34:12;;;;;;;;;;;17.20;88.10;;;;;;6340732;22;19996;-95
2022/09/12 03:36:39;;;;;;;;;;;17.20;87.80;;;;;;6314147;22;20324;-96
2022/09/12 03:39:05;;;;;;;;;;;17.30;87.30;;;;;;6340697;22;19949;-96
2022/09/12 03:41:31;;;;;;;;;;;17.20;87.30;;;;;;6340727;22;20015;-96
2022/09/12 03:43:56;;;;;;;;;;;17.00;86.60;;;;;;6340994;22;19984;-96
2022/09/12 03:46:22;;;;;;;;;;;16.80;87.20;;;;;;6340950;22;19950;-96
2022/09/12 03:48:49;;;;;;;;;;;16.80;87.80;;;;;;6312953;22;19977;-95
2022/09/12 03:51:15;;;;;;;;;;;16.90;88.30;;;;;;6340662;22;20008;-96
2022/09/12 03:53:40;;;;;;;;;;;17.10;87.80;;;;;;6340903;22;19978;-95
2022/09/12 03:56:07;;;;;;;;;;;17.10;87.50;;;;;;6340446;22;20288;-96
2022/09/12 03:58:34;;;;;;;;;;;17.10;87.60;;;;;;6312792;22;19940;-95
2022/09/12 04:01:00;;;;;;;;;;;17.10;87.10;;;;;;6340848;22;20020;-95
2022/09/12 04:03:25;;;;;;;;;;;17.00;87.30;;;;;;6312843;22;20372;-95
2022/09/12 04:05:51;;;;;;;;;;;17.10;87.30;;;;;;6341171;22;19934;-96
2022/09/12 04:08:16;;;;;;;;;;;17.20;87.10;;;;;;6312776;22;19969;-96
2022/09/12 04:10:42;;;;;;;;;;;17.30;86.90;;;;;;6341098;22;19944;-95
2022/09/12 04:13:07;;;;;;;;;;;17.30;86.30;;;;;;6340689;22;19928;-95
2022/09/12 04:15:33;;;;;;;;;;;17.20;86.70;;;;;;6340251;22;20390;-95
2022/09/12 04:17:58;;;;;;;;;;;17.10;86.30;;;;;;6341041;22;19935;-95
2022/09/12 04:20:24;;;;;;;;;;;16.90;86.40;;;;;;6340334;22;19943;-96
2022/09/12 04:22:50;;;;;;;;;;;16.90;86.40;;;;;;6341130;22;19938;-95
2022/09/12 04:25:16;;;;;;;;;;;16.90;86.70;;;;;;6314036;22;19941;-95
2022/09/12 04:27:41;;;;;;;;;;;16.80;87.20;;;;;;6341557;22;19936;-96
2022/09/12 04:30:07;;;;;;;;;;;16.80;87.50;;;;;;6313360;22;19941;-96
2022/09/12 04:32:33;;;;;;;;;;;16.80;87.00;;;;;;6340850;22;19934;-96
2022/09/12 04:34:59;;;;;;;;;;;16.60;87.10;;;;;;6341375;22;19975;-95
2022/09/12 04:37:25;;;;;;;;;;;16.60;87.60;;;;;;6340831;22;19935;-96
2022/09/12 04:39:50;;;;;;;;;;;16.80;87.70;;;;;;6312824;22;20329;-96
2022/09/12 04:42:16;;;;;;;;;;;16.90;87.80;;;;;;6340465;22;20013;-96
2022/09/12 04:44:42;;;;;;;;;;;17.10;87.20;;;;;;6312907;22;19941;-96
2022/09/12 04:47:07;;;;;;;;;;;17.00;87.00;;;;;;6340685;22;19933;-96
2022/09/12 04:49:33;;;;;;;;;;;17.20;86.90;;;;;;6312642;22;19943;-96
2022/09/12 04:51:59;;;;;;;;;;;17.30;86.50;;;;;;6340825;22;19953;-95
2022/09/12 04:54:24;;;;;;;;;;;17.40;85.90;;;;;;6312706;22;20419;-96
2022/09/12 04:56:51;;;;;;;;;;;17.30;85.70;;;;;;6340534;22;20261;-96
2022/09/12 04:59:18;;;;;;;;;;;17.10;85.20;;;;;;6340269;22;19936;-96
2022/09/12 05:01:43;;;;;;;;;;;16.90;85.50;;;;;;6340843;22;20362;-95
2022/09/12 05:04:11;;;;;;;;;;;16.80;85.80;;;;;;6339984;22;19939;-96
2022/09/12 05:06:37;;;;;;;;;;;16.70;86.00;;;;;;6340233;22;19942;-95
2022/09/12 05:09:04;;;;;;;;;;;16.60;86.60;;;;;;6340754;22;19940;-94
2022/09/12 05:11:31;;;;;;;;;;;16.30;87.60;;;;;;6340412;22;20409;-95
2022/09/12 05:13:57;;;;;;;;;;;16.30;88.20;;;;;;6312089;22;20346;-95
2022/09/12 05:16:23;;;;;;;;;;;16.40;88.20;;;;;;6341927;22;19957;-95
2022/09/12 05:18:49;;;;;;;;;;;16.40;88.30;;;;;;6344051;22;19944;-95
2022/09/12 05:21:15;;;;;;;;;;;16.40;88.20;;;;;;6315536;22;19933;-95
2022/09/12 05:23:41;;;;;;;;;;;16.50;88.50;;;;;;6344080;22;20241;-95
2022/09/12 05:26:07;;;;;;;;;;;16.40;88.80;;;;;;6344423;22;19939;-94
2022/09/12 05:28:34;;;;;;;;;;;16.50;88.80;;;;;;6341505;22;19931;-95
2022/09/12 05:31:00;;;;;;;;;;;16.60;88.80;;;;;;6341584;22;19936;-95
2022/09/12 05:33:26;;;;;;;;;;;16.70;88.70;;;;;;6347353;22;19935;-96
2022/09/12 05:35:52;;;;;;;;;;;16.80;88.40;;;;;;6353451;22;19934;-96
2022/09/12 05:38:17;;;;;;;;;;;16.90;88.10;;;;;;6323982;22;19949;-96
2022/09/12 05:40:43;;;;;;;;;;;17.10;87.80;;;;;;6354261;22;20334;-95
2022/09/12 05:43:11;;;;;;;;;;;17.20;87.60;;;;;;6352321;22;19932;-96
2022/09/12 05:45:37;;;;;;;;;;;17.30;86.80;;;;;;6324392;22;20338;-96
2022/09/12 05:48:03;;;;;;;;;;;17.40;86.40;;;;;;6346053;22;19938;-96
2022/09/12 05:50:28;;;;;;;;;;;17.60;86.10;;;;;;6313773;22;19939;-95
2022/09/12 06:00:34;;;;;;;;;;;17.80;85.90;;;;;;6352334;22;19971;-96
2022/09/12 06:03:00;;;;;;;;;;;17.80;85.70;;;;;;6352502;22;19939;-96
2022/09/12 06:05:26;;;;;;;;;;;17.90;85.60;;;;;;6353623;22;19940;-96
2022/09/12 06:07:52;;;;;;;;;;;18.00;85.80;;;;;;6323640;22;19934;-96
2022/09/12 06:10:17;;;;;;;;;;;18.00;86.00;;;;;;6350224;22;19948;-96
2022/09/12 06:12:43;;;;;;;;;;;17.90;86.60;;;;;;6349420;22;20006;-96
2022/09/12 06:15:09;;;;;;;;;;;17.90;87.40;;;;;;6358395;22;19983;-96
2022/09/12 06:17:35;;;;;;;;;;;17.90;87.90;;;;;;6318463;22;19935;-95
2022/09/12 06:20:00;;;;;;;;;;;18.00;87.80;;;;;;6346645;22;19938;-95
2022/09/12 06:22:27;;;;;;;;;;;18.10;87.70;;;;;;6356497;22;19934;-96
2022/09/12 06:24:59;;;;;;;;;;;18.30;87.30;;;;;;6328217;22;19953;-96
2022/09/12 06:27:26;;;;;;;;;;;18.30;86.90;;;;;;6354383;22;20355;-96
2022/09/12 06:29:52;;;;;;;;;;;18.50;86.40;;;;;;6356381;22;19948;-96
2022/09/12 06:32:17;;;;;;;;;;;18.60;86.10;;;;;;6350043;22;19938;-96
2022/09/12 06:34:46;;;;;;;;;;;18.80;85.80;;;;;;6320556;22;19953;-96
2022/09/12 06:37:13;;;;;;;;;;;18.80;84.90;;;;;;6363756;22;19941;-96
2022/09/12 06:39:39;;;;;;;;;;;19.20;83.00;;;;;;6326543;22;19932;-96
2022/09/12 06:42:05;;;;;;;;;;;19.40;81.30;;;;;;6290379;22;19961;-96
2022/09/12 06:44:30;;;;;;;;;;;19.70;80.40;;;;;;6357517;22;19951;-95
2022/09/12 06:46:57;;;;;;;;;;;19.80;79.20;;;;;;6335802;22;19955;-96
2022/09/12 06:49:26;;;;;;;;;;;20.00;77.10;;;;;;6351163;22;19976;-96
2022/09/12 06:51:51;;;;;;;;;;;20.10;76.70;;;;;;6294489;22;19944;-96
2022/09/12 06:54:18;;;;;;;;;;;20.10;76.00;;;;;;6328583;22;19960;-96
2022/09/12 06:56:44;;;;;;;;;;;20.20;76.00;;;;;;6326984;22;19941;-96
2022/09/12 06:59:10;;;;;;;;;;;20.20;76.10;;;;;;6322465;22;19931;-96
2022/09/12 07:01:36;;;;;;;;;;;20.30;76.20;;;;;;6324456;22;19978;-96
2022/09/12 07:04:03;;;;;;;;;;;20.30;75.60;;;;;;6295054;22;19940;-96
2022/09/12 07:06:35;;;;;;;;;;;20.30;75.20;;;;;;6317433;22;19960;-96
2022/09/12 07:09:03;;;;;;;;;;;20.30;75.20;;;;;;6316689;22;19934;-96
2022/09/12 07:11:30;;;;;;;;;;;20.40;75.10;;;;;;6312777;22;19941;-96
2022/09/12 07:13:57;;;;;;;;;;;20.40;74.80;;;;;;6309785;22;19940;-96
2022/09/12 07:16:22;;;;;;;;;;;20.50;74.80;;;;;;6310697;22;20049;-96
2022/09/12 07:18:49;;;;;;;;;;;20.60;74.90;;;;;;6310080;22;19944;-96
2022/09/12 07:21:15;;;;;;;;;;;20.70;74.80;;;;;;6310023;22;19930;-96
2022/09/12 07:23:40;;;;;;;;;;;20.80;74.60;;;;;;6308852;22;19946;-96
2022/09/12 07:26:07;;;;;;;;;;;20.80;74.70;;;;;;6306490;22;19946;-96
2022/09/12 07:28:33;;;;;;;;;;;20.80;73.20;;;;;;6312670;22;20010;-96
2022/09/12 07:31:09;;;;;;;;;;;20.90;72.70;;;;;;6315275;22;19951;-96
2022/09/12 07:33:35;;;;;;;;;;;21.00;72.20;;;;;;6312784;22;19940;-96
2022/09/12 07:36:02;;;;;;;;;;;21.10;71.20;;;;;;6314074;22;19950;-96
2022/09/12 07:38:28;;;;;;;;;;;21.20;70.60;;;;;;6311388;22;19936;-96
2022/09/12 07:40:54;;;;;;;;;;;21.20;69.10;;;;;;6310411;22;19935;-96
2022/09/12 07:43:19;;;;;;;;;;;21.30;68.40;;;;;;6310494;22;19979;-95
2022/09/12 07:45:45;;;;;;;;;;;21.30;68.10;;;;;;6310643;22;19952;-96
2022/09/12 07:48:11;;;;;;;;;;;21.40;68.50;;;;;;6311678;22;20336;-96
2022/09/12 07:50:36;;;;;;;;;;;21.60;67.50;;;;;;6309735;22;20050;-96
2022/09/12 07:53:03;;;;;;;;;;;21.80;66.90;;;;;;6309984;22;20326;-96
2022/09/12 07:55:29;;;;;;;;;;;21.90;67.00;;;;;;6319461;22;19974;-96
2022/09/12 07:57:54;;;;;;;;;;;22.10;67.70;;;;;;6310296;22;19959;-96
2022/09/12 08:00:20;;;;;;;;;;;22.30;66.50;;;;;;6316430;22;19932;-96
2022/09/12 08:02:50;;;;;;;;;;;22.40;67.00;;;;;;6316824;22;19958;-96
2022/09/12 08:05:15;;;;;;;;;;;22.50;67.10;;;;;;6317451;22;20335;-96
2022/09/12 08:07:41;;;;;;;;;;;22.50;66.30;;;;;;6313171;22;20008;-96
2022/09/12 08:10:07;;;;;;;;;;;22.50;65.50;;;;;;6283230;22;19937;-96
2022/09/12 08:12:33;;;;;;;;;;;22.60;65.20;;;;;;6307107;22;20043;-96
2022/09/12 08:14:59;;;;;;;;;;;22.60;65.80;;;;;;6309162;22;19960;-96
2022/09/12 08:17:25;;;;;;;;;;;22.60;64.00;;;;;;6310350;22;19930;-96
2022/09/12 08:19:51;;;;;;;;;;;22.70;63.30;;;;;;6308837;22;19931;-96
2022/09/12 08:22:19;;;;;;;;;;;22.70;63.80;;;;;;6309484;22;20025;-96
2022/09/12 08:24:45;;;;;;;;;;;22.80;64.00;;;;;;6303553;22;19944;-96
2022/09/12 08:27:11;;;;;;;;;;;22.80;63.90;;;;;;6281593;22;20388;-96
2022/09/12 08:29:36;;;;;;;;;;;22.80;63.70;;;;;;6310079;22;19936;-94
2022/09/12 08:32:02;;;;;;;;;;;22.80;63.40;;;;;;6311393;22;20289;-96
2022/09/12 08:34:28;;;;;;;;;;;22.90;63.10;;;;;;6317503;22;20265;-96
2022/09/12 08:36:53;;;;;;;;;;;22.90;62.80;;;;;;6310264;22;19947;-96
2022/09/12 08:39:19;;;;;;;;;;;22.90;63.00;;;;;;6308203;22;20266;-96
2022/09/12 08:41:46;;;;;;;;;;;23.10;64.50;;;;;;6308125;22;19935;-96
2022/09/12 08:44:29;;;;;;;;;;;23.20;63.80;;;;;;6307613;22;19940;-96
2022/09/12 08:47:13;;;;;;;;;;;23.30;61.90;;;;;;6306833;22;19938;-96
2022/09/12 08:55:40;;;;;;;;;;;23.40;63.40;;;;;;6364419;22;20016;-92
2022/09/12 08:58:16;;;;;;;;;;;23.50;62.30;;;;;;6365273;22;19947;-92
2022/09/12 09:01:01;;;;;;;;;;;23.50;62.00;;;;;;6364542;22;19936;-92
2022/09/12 09:03:33;;;;;;;;;;;23.60;61.80;;;;;;6340002;22;19943;-91
2022/09/12 09:06:10;;;;;;;;;;;23.60;61.30;;;;;;6368648;22;19938;-91
2022/09/12 09:09:05;;;;;;;;;;;23.60;60.40;;;;;;6368000;22;19965;-92
2022/09/12 09:11:33;;;;;;;;;;;23.70;61.40;;;;;;6228491;22;19941;-92
2022/09/12 09:16:54;;;;;;;;;;;23.70;61.90;;;;;;6364701;22;20022;-92
2022/09/12 09:19:25;;;;;;;;;;;23.80;61.90;;;;;;6365028;22;19944;-92
2022/09/12 09:21:59;;;;;;;;;;;23.80;61.50;;;;;;6367007;22;19931;-92
2022/09/12 09:24:27;;;;;;;;;;;24.00;60.70;;;;;;6364658;22;19938;-91
2022/09/12 09:26:53;;;;;;;;;;;24.00;59.80;;;;;;6364011;22;19956;-92
2022/09/12 09:29:19;;;;;;;;;;;24.00;60.60;;;;;;6366656;22;19941;-91
2022/09/12 09:31:50;;;;;;;;;;;24.20;60.00;;;;;;6365455;22;19986;-92
2022/09/12 09:34:21;;;;;;;;;;;24.20;60.20;;;;;;6364948;22;20012;-92
2022/09/12 09:37:06;;;;;;;;;;;24.40;60.80;;;;;;6365724;22;20021;-92
2022/09/12 09:39:50;;;;;;;;;;;24.50;61.20;;;;;;6364774;22;19940;-92
2022/09/12 09:42:18;;;;;;;;;;;24.50;59.70;;;;;;6364162;22;19938;-92
2022/09/12 09:44:46;;;;;;;;;;;24.60;59.20;;;;;;6366283;22;19936;-92
2022/09/12 09:47:11;;;;;;;;;;;24.60;59.50;;;;;;6367743;22;19934;-92
2022/09/12 09:49:37;;;;;;;;;;;24.70;61.60;;;;;;6367630;22;19938;-92
2022/09/12 09:52:04;;;;;;;;;;;24.80;60.30;;;;;;6338934;22;20349;-92
2022/09/12 09:54:36;;;;;;;;;;;24.90;60.40;;;;;;6336801;22;20485;-92
2022/09/12 09:57:03;;;;;;;;;;;25.00;60.20;;;;;;6307042;22;20183;-91
2022/09/12 09:59:32;;;;;;;;;;;25.10;58.50;;;;;;6337554;22;19935;-92
2022/09/12 10:02:02;;;;;;;;;;;25.00;59.10;;;;;;6308280;22;20022;-91
2022/09/12 10:04:33;;;;;;;;;;;25.00;59.20;;;;;;6308616;22;19965;-91
2022/09/12 10:07:00;;;;;;;;;;;24.90;59.80;;;;;;6337664;22;19939;-92
2022/09/12 10:09:26;;;;;;;;;;;25.00;59.80;;;;;;6336002;22;19966;-92
2022/09/12 10:11:53;;;;;;;;;;;24.90;60.30;;;;;;6336337;22;19949;-92
2022/09/12 10:14:30;;;;;;;;;;;25.10;58.40;;;;;;6335551;22;20032;-92
2022/09/12 10:16:56;;;;;;;;;;;25.20;58.00;;;;;;6336618;22;19939;-92
2022/09/12 10:19:23;;;;;;;;;;;25.40;59.20;;;;;;6337134;22;20022;-92
2022/09/12 10:21:52;;;;;;;;;;;25.60;57.90;;;;;;6337542;22;19939;-92
2022/09/12 10:24:18;;;;;;;;;;;25.70;57.20;;;;;;6337555;22;19929;-92
2022/09/12 10:26:45;;;;;;;;;;;25.80;55.90;;;;;;6340003;22;20012;-92
2022/09/12 10:29:16;;;;;;;;;;;25.80;54.60;;;;;;6340409;22;19933;-91
2022/09/12 10:31:44;;;;;;;;;;;25.80;54.40;;;;;;6339759;22;19930;-92
2022/09/12 10:34:21;;;;;;;;;;;25.90;55.20;;;;;;6340239;22;20016;-92
2022/09/12 10:36:47;;;;;;;;;;;25.90;53.50;;;;;;6312725;22;19948;-92
2022/09/12 10:39:18;;;;;;;;;;;26.00;53.20;;;;;;6340173;22;20259;-92
2022/09/12 10:41:43;;;;;;;;;;;26.10;54.50;;;;;;6339968;22;19931;-92
2022/09/12 10:44:35;;;;;;;;;;;25.90;54.10;;;;;;6340177;22;19940;-92
2022/09/12 10:47:21;;;;;;;;;;;25.90;54.20;;;;;;6332729;22;19967;-92
2022/09/12 10:49:46;;;;;;;;;;;25.90;55.10;;;;;;6340034;22;20358;-92
2022/09/12 10:52:19;;;;;;;;;;;26.00;54.30;;;;;;6340272;22;19961;-92
2022/09/12 10:54:44;;;;;;;;;;;26.20;54.50;;;;;;6339616;22;20450;-92
2022/09/12 10:57:16;;;;;;;;;;;26.30;52.10;;;;;;6339965;22;19963;-92
2022/09/12 10:59:42;;;;;;;;;;;26.40;51.80;;;;;;6340541;22;20032;-92
2022/09/12 11:02:11;;;;;;;;;;;26.60;51.70;;;;;;6340143;22;20423;-92
2022/09/12 11:04:36;;;;;;;;;;;26.50;51.90;;;;;;6340011;22;19938;-92
2022/09/12 11:07:08;;;;;;;;;;;26.60;54.00;;;;;;6340081;22;19945;-92
2022/09/12 11:09:36;;;;;;;;;;;26.80;52.90;;;;;;6340005;22;19940;-92
2022/09/12 11:12:13;;;;;;;;;;;27.10;52.70;;;;;;6339804;22;19936;-92
2022/09/12 11:14:39;;;;;;;;;;;27.10;51.00;;;;;;6339534;22;19963;-92
2022/09/12 11:17:11;;;;;;;;;;;27.20;50.80;;;;;;6312492;22;19935;-92
2022/09/12 11:20:02;;;;;;;;;;;27.10;50.70;;;;;;6339870;22;19938;-92
2022/09/12 11:22:35;;;;;;;;;;;27.00;50.50;;;;;;6339208;22;19960;-92
2022/09/12 11:25:07;;;;;;;;;;;27.10;50.20;;;;;;6339542;22;19953;-92
2022/09/12 11:27:32;;;;;;;;;;;27.20;50.60;;;;;;6337890;22;19946;-92
2022/09/12 11:30:08;;;;;;;;;;;27.20;50.20;;;;;;6338778;22;19932;-92
2022/09/12 11:32:49;;;;;;;;;;;27.30;49.60;;;;;;6337570;22;20013;-92
2022/09/12 11:35:14;;;;;;;;;;;27.60;48.80;;;;;;6336453;22;19954;-92
2022/09/12 11:37:55;;;;;;;;;;;27.80;48.50;;;;;;6339003;22;20019;-92
2022/09/12 11:40:28;;;;;;;;;;;28.20;47.70;;;;;;6338060;22;20527;-92
2022/09/12 11:42:58;;;;;;;;;;;28.30;47.00;;;;;;6336486;22;20052;-92
2022/09/12 11:45:33;;;;;;;;;;;28.30;46.90;;;;;;6339488;22;19943;-91
2022/09/12 11:48:03;;;;;;;;;;;28.60;46.40;;;;;;6339026;22;19937;-91
2022/09/12 11:50:29;;;;;;;;;;;28.20;46.10;;;;;;6310000;22;19947;-91
2022/09/12 11:52:59;;;;;;;;;;;27.70;47.40;;;;;;6338863;22;19929;-91
2022/09/12 11:55:27;;;;;;;;;;;27.60;48.10;;;;;;6337739;22;19977;-92
2022/09/12 11:57:53;;;;;;;;;;;27.40;47.60;;;;;;6338643;22;19943;-93
2022/09/12 12:00:19;;;;;;;;;;;27.60;47.20;;;;;;6338420;22;19964;-91
2022/09/12 12:02:54;;;;;;;;;;;27.80;45.60;;;;;;6338848;22;20349;-92
2022/09/12 12:05:19;;;;;;;;;;;28.20;46.10;;;;;;6337174;22;19937;-92
2022/09/12 12:07:55;;;;;;;;;;;28.60;44.40;;;;;;6338275;22;20413;-92
2022/09/12 12:10:41;;;;;;;;;;;28.90;43.00;;;;;;6338228;22;19945;-92
2022/09/12 12:13:27;;;;;;;;;;;29.10;43.40;;;;;;6337608;22;19932;-93
2022/09/12 12:15:55;;;;;;;;;;;29.70;43.50;;;;;;6259944;22;19974;-93
2022/09/12 12:18:22;;;;;;;;;;;29.40;41.30;;;;;;6338353;22;20060;-92
2022/09/12 12:20:48;;;;;;;;;;;29.10;42.00;;;;;;6337267;22;19941;-93
2022/09/12 12:23:23;;;;;;;;;;;29.20;42.70;;;;;;6336409;22;19946;-93
2022/09/12 12:25:56;;;;;;;;;;;29.70;41.20;;;;;;6337427;22;19936;-93
2022/09/12 12:28:40;;;;;;;;;;;30.70;39.20;;;;;;6338667;22;19988;-93
2022/09/12 12:31:06;;;;;;;;;;;31.10;38.00;;;;;;6337155;22;19937;-93
2022/09/12 12:33:32;;;;;;;;;;;30.70;39.10;;;;;;6338470;22;20314;-93
2022/09/12 12:35:58;;;;;;;;;;;31.10;38.00;;;;;;6310126;22;20109;-93
2022/09/12 12:38:30;;;;;;;;;;;31.90;38.10;;;;;;6337083;22;19938;-92
2022/09/12 12:41:22;;;;;;;;;;;31.80;36.70;;;;;;6338649;22;19993;-93
2022/09/12 12:43:52;;;;;;;;;;;32.00;37.30;;;;;;6279963;22;19936;-93
2022/09/12 12:46:18;;;;;;;;;;;32.40;36.90;;;;;;6337327;22;19931;-92
2022/09/12 12:48:50;;;;;;;;;;;32.60;36.90;;;;;;6338650;22;19942;-93
2022/09/12 12:51:16;;;;;;;;;;;32.40;36.20;;;;;;6336249;22;19947;-92
2022/09/12 12:53:42;;;;;;;;;;;31.30;38.50;;;;;;6337716;22;20005;-92
2022/09/12 12:56:24;;;;;;;;;;;30.70;39.50;;;;;;6337293;22;19965;-93
2022/09/12 12:58:56;;;;;;;;;;;30.50;40.00;;;;;;6337301;22;20363;-93
2022/09/12 13:01:22;;;;;;;;;;;30.80;40.00;;;;;;6337789;22;19946;-92
2022/09/12 13:03:55;;;;;;;;;;;31.10;38.60;;;;;;6336684;22;19941;-93
2022/09/12 13:06:41;;;;;;;;;;;30.80;38.90;;;;;;6338134;22;20015;-93
2022/09/12 13:09:08;;;;;;;;;;;31.30;38.50;;;;;;6330298;22;20041;-93
2022/09/12 13:11:38;;;;;;;;;;;32.30;36.20;;;;;;6336989;22;20021;-93
2022/09/12 13:14:05;;;;;;;;;;;33.50;34.60;;;;;;6336343;22;19939;-94
2022/09/12 13:16:38;;;;;;;;;;;34.80;33.20;;;;;;6337294;22;20129;-93
2022/09/12 13:19:12;;;;;;;;;;;35.60;31.00;;;;;;6337533;22;19934;-93
2022/09/12 13:21:38;;;;;;;;;;;35.30;31.40;;;;;;6337174;22;19956;-93
2022/09/12 13:24:04;;;;;;;;;;;34.50;32.40;;;;;;6337657;22;20240;-92
2022/09/12 13:26:40;;;;;;;;;;;34.20;33.10;;;;;;6310427;22;19957;-94
2022/09/12 13:29:16;;;;;;;;;;;34.20;33.20;;;;;;6338231;22;19961;-93
2022/09/12 13:31:42;;;;;;;;;;;34.20;33.80;;;;;;6338169;22;19936;-93
2022/09/12 13:34:09;;;;;;;;;;;34.20;33.60;;;;;;6337862;22;20030;-93
2022/09/12 13:36:48;;;;;;;;;;;35.20;32.40;;;;;;6337224;22;19956;-94
2022/09/12 13:39:17;;;;;;;;;;;36.20;30.60;;;;;;6337631;22;20021;-93
2022/09/12 13:42:02;;;;;;;;;;;36.40;29.20;;;;;;6338470;22;19942;-93
2022/09/12 13:44:28;;;;;;;;;;;37.00;29.70;;;;;;6337239;22;20287;-93
2022/09/12 13:46:57;;;;;;;;;;;36.80;29.70;;;;;;6337013;22;19941;-93
2022/09/12 13:49:35;;;;;;;;;;;37.80;29.50;;;;;;6336023;22;20402;-93
2022/09/12 13:52:06;;;;;;;;;;;39.10;26.20;;;;;;6336774;22;19951;-93
2022/09/12 13:54:32;;;;;;;;;;;40.20;25.00;;;;;;6337469;22;20323;-93
2022/09/12 13:56:58;;;;;;;;;;;39.90;25.30;;;;;;6309955;22;20286;-94
2022/09/12 13:59:24;;;;;;;;;;;40.00;25.30;;;;;;6338587;22;20021;-93
2022/09/12 14:01:50;;;;;;;;;;;38.90;25.80;;;;;;6339546;22;19990;-93
2022/09/12 14:07:17;;;;;;;;;;;35.60;29.80;;;;;;6338842;22;19943;-93
2022/09/12 14:09:44;;;;;;;;;;;36.00;29.10;;;;;;6339159;22;20261;-92
2022/09/12 14:12:24;;;;;;;;;;;35.60;30.80;;;;;;6339738;22;19942;-93
2022/09/12 14:14:50;;;;;;;;;;;34.90;31.20;;;;;;6338678;22;19950;-92
2022/09/12 14:17:17;;;;;;;;;;;34.20;31.40;;;;;;6339874;22;19957;-92
2022/09/12 14:19:42;;;;;;;;;;;33.30;32.70;;;;;;6339018;22;19932;-92
2022/09/12 14:22:15;;;;;;;;;;;32.70;32.90;;;;;;6338985;22;19938;-93
2022/09/12 14:24:41;;;;;;;;;;;33.20;33.80;;;;;;6339878;22;19934;-93
2022/09/12 14:27:08;;;;;;;;;;;34.00;31.70;;;;;;6339422;22;20017;-92
2022/09/12 14:29:34;;;;;;;;;;;33.30;32.70;;;;;;6339450;22;19959;-93
2022/09/12 14:32:01;;;;;;;;;;;33.90;32.90;;;;;;6339355;22;20360;-93
2022/09/12 14:34:27;;;;;;;;;;;34.30;32.60;;;;;;6337515;22;19934;-93
2022/09/12 14:36:56;;;;;;;;;;;34.20;31.10;;;;;;6338005;22;20271;-93
2022/09/12 14:39:28;;;;;;;;;;;34.60;31.50;;;;;;6338866;22;19961;-93
2022/09/12 14:42:11;;;;;;;;;;;35.00;29.90;;;;;;6339713;22;19983;-93
2022/09/12 14:44:37;;;;;;;;;;;35.60;29.60;;;;;;6339151;22;20385;-92
2022/09/12 14:47:19;;;;;;;;;;;35.70;29.40;;;;;;6339345;22;19941;-93